sensor_id;sensor_type;location;lat;lon;timestamp;P1;durP1;ratioP1;P2;durP2;ratioP2
5085;SDS011;4715;51.660;7.082;2024-03-23T00:53:28;9.37;;;3.40;;
5085;SDS011;4715;51.660;7.082;2024-03-23T00:55:52;15.30;;;3.40;;
5085;SDS011;4715;51.660;7.082;2024-03-23T00:58:14;6.00;;;2.90;;
5085;SDS011;4715;51.660;7.082;2024-03-23T01:00:36;6.03;;;3.27;;
5085;SDS011;4715;51.660;7.082;2024-03-23T01:02:59;11.67;;;3.10;;
5085;SDS011;4715;51.660;7.082;2024-03-23T01:05:23;8.30;;;3.17;;
5085;SDS011;4715;51.660;7.082;2024-03-23T01:07:45;10.80;;;3.73;;
5085;SDS011;4715;51.660;7.082;2024-03-23T01:10:07;5.53;;;2.73;;
5085;SDS011;4715;51.660;7.082;2024-03-23T01:12:30;7.53;;;2.53;;
5085;SDS011;4715;51.660;7.082;2024-03-23T01:14:52;12.20;;;3.50;;
5085;SDS011;4715;51.660;7.082;2024-03-23T01:17:15;11.23;;;3.50;;
5085;SDS011;4715;51.660;7.082;2024-03-23T01:19:36;9.93;;;2.90;;
5085;SDS011;4715;51.660;7.082;2024-03-23T01:21:59;7.90;;;3.40;;
5085;SDS011;4715;51.660;7.082;2024-03-23T01:24:20;8.10;;;3.33;;
5085;SDS011;4715;51.660;7.082;2024-03-23T01:26:42;9.33;;;4.10;;
5085;SDS011;4715;51.660;7.082;2024-03-23T01:29:04;8.80;;;3.63;;
5085;SDS011;4715;51.660;7.082;2024-03-23T01:31:27;12.90;;;4.20;;
5085;SDS011;4715;51.660;7.082;2024-03-23T01:33:49;12.63;;;3.10;;
5085;SDS011;4715;51.660;7.082;2024-03-23T01:36:12;3.60;;;2.80;;
5085;SDS011;4715;51.660;7.082;2024-03-23T01:38:33;5.40;;;2.40;;
5085;SDS011;4715;51.660;7.082;2024-03-23T01:40:58;6.43;;;3.10;;
5085;SDS011;4715;51.660;7.082;2024-03-23T01:43:19;5.50;;;3.10;;
5085;SDS011;4715;51.660;7.082;2024-03-23T01:45:41;3.90;;;2.40;;
5085;SDS011;4715;51.660;7.082;2024-03-23T01:48:03;5.70;;;2.17;;
5085;SDS011;4715;51.660;7.082;2024-03-23T01:50:27;4.90;;;2.30;;
5085;SDS011;4715;51.660;7.082;2024-03-23T01:52:48;11.57;;;3.20;;
5085;SDS011;4715;51.660;7.082;2024-03-23T01:55:13;5.73;;;3.07;;
5085;SDS011;4715;51.660;7.082;2024-03-23T01:57:36;4.70;;;2.40;;
5085;SDS011;4715;51.660;7.082;2024-03-23T01:59:59;5.27;;;2.97;;
5085;SDS011;4715;51.660;7.082;2024-03-23T02:02:20;4.77;;;2.90;;
5085;SDS011;4715;51.660;7.082;2024-03-23T02:04:45;4.60;;;2.70;;
5085;SDS011;4715;51.660;7.082;2024-03-23T02:07:07;7.13;;;3.27;;
5085;SDS011;4715;51.660;7.082;2024-03-23T02:09:29;4.43;;;2.60;;
5085;SDS011;4715;51.660;7.082;2024-03-23T02:11:53;5.90;;;2.80;;
5085;SDS011;4715;51.660;7.082;2024-03-23T02:14:16;8.57;;;4.13;;
5085;SDS011;4715;51.660;7.082;2024-03-23T02:16:37;8.30;;;2.63;;
5085;SDS011;4715;51.660;7.082;2024-03-23T02:18:59;3.63;;;2.93;;
5085;SDS011;4715;51.660;7.082;2024-03-23T02:21:21;4.73;;;2.77;;
5085;SDS011;4715;51.660;7.082;2024-03-23T02:23:45;8.20;;;2.50;;
5085;SDS011;4715;51.660;7.082;2024-03-23T02:26:07;5.20;;;2.20;;
5085;SDS011;4715;51.660;7.082;2024-03-23T02:28:31;2.77;;;2.57;;
5085;SDS011;4715;51.660;7.082;2024-03-23T02:30:52;5.10;;;2.50;;
5085;SDS011;4715;51.660;7.082;2024-03-23T02:33:14;5.90;;;2.40;;
5085;SDS011;4715;51.660;7.082;2024-03-23T02:35:36;3.60;;;2.53;;
5085;SDS011;4715;51.660;7.082;2024-03-23T02:37:58;8.07;;;2.97;;
5085;SDS011;4715;51.660;7.082;2024-03-23T02:40:20;4.10;;;3.10;;
5085;SDS011;4715;51.660;7.082;2024-03-23T02:42:43;8.30;;;3.10;;
5085;SDS011;4715;51.660;7.082;2024-03-23T02:45:04;6.37;;;2.33;;
5085;SDS011;4715;51.660;7.082;2024-03-23T02:47:27;7.07;;;2.17;;
5085;SDS011;4715;51.660;7.082;2024-03-23T02:49:48;4.70;;;1.93;;
5085;SDS011;4715;51.660;7.082;2024-03-23T02:52:11;4.13;;;2.93;;
5085;SDS011;4715;51.660;7.082;2024-03-23T02:54:32;4.63;;;2.67;;
5085;SDS011;4715;51.660;7.082;2024-03-23T02:56:55;3.13;;;1.93;;
5085;SDS011;4715;51.660;7.082;2024-03-23T02:59:16;8.63;;;2.80;;
5085;SDS011;4715;51.660;7.082;2024-03-23T03:01:41;4.27;;;1.83;;
5085;SDS011;4715;51.660;7.082;2024-03-23T03:04:01;5.43;;;2.27;;
5085;SDS011;4715;51.660;7.082;2024-03-23T03:06:25;3.67;;;2.30;;
5085;SDS011;4715;51.660;7.082;2024-03-23T03:08:47;6.13;;;2.37;;
5085;SDS011;4715;51.660;7.082;2024-03-23T03:11:09;6.53;;;2.17;;
5085;SDS011;4715;51.660;7.082;2024-03-23T03:13:31;3.60;;;2.33;;
5085;SDS011;4715;51.660;7.082;2024-03-23T03:15:53;6.20;;;2.27;;
5085;SDS011;4715;51.660;7.082;2024-03-23T03:18:13;4.10;;;2.57;;
5085;SDS011;4715;51.660;7.082;2024-03-23T03:20:37;3.17;;;2.50;;
5085;SDS011;4715;51.660;7.082;2024-03-23T03:23:00;6.00;;;2.20;;
5085;SDS011;4715;51.660;7.082;2024-03-23T03:25:22;2.83;;;2.53;;
5085;SDS011;4715;51.660;7.082;2024-03-23T03:27:45;6.27;;;2.10;;
5085;SDS011;4715;51.660;7.082;2024-03-23T03:30:08;4.67;;;2.97;;
5085;SDS011;4715;51.660;7.082;2024-03-23T03:32:31;7.60;;;2.63;;
5085;SDS011;4715;51.660;7.082;2024-03-23T03:34:53;5.27;;;2.00;;
5085;SDS011;4715;51.660;7.082;2024-03-23T03:37:14;7.93;;;2.70;;
5085;SDS011;4715;51.660;7.082;2024-03-23T03:39:36;4.67;;;2.77;;
5085;SDS011;4715;51.660;7.082;2024-03-23T03:41:57;3.77;;;2.10;;
5085;SDS011;4715;51.660;7.082;2024-03-23T03:44:20;5.00;;;2.40;;
5085;SDS011;4715;51.660;7.082;2024-03-23T03:46:44;6.90;;;2.40;;
5085;SDS011;4715;51.660;7.082;2024-03-23T03:49:06;6.20;;;2.30;;
5085;SDS011;4715;51.660;7.082;2024-03-23T03:51:27;4.87;;;1.67;;
5085;SDS011;4715;51.660;7.082;2024-03-23T03:53:49;8.73;;;2.57;;
5085;SDS011;4715;51.660;7.082;2024-03-23T03:56:11;9.63;;;3.40;;
5085;SDS011;4715;51.660;7.082;2024-03-23T03:58:33;9.50;;;2.00;;
5085;SDS011;4715;51.660;7.082;2024-03-23T04:00:54;6.47;;;2.73;;
5085;SDS011;4715;51.660;7.082;2024-03-23T04:03:17;2.43;;;2.23;;
5085;SDS011;4715;51.660;7.082;2024-03-23T04:05:39;10.03;;;1.70;;
5085;SDS011;4715;51.660;7.082;2024-03-23T04:08:00;6.77;;;2.53;;
5085;SDS011;4715;51.660;7.082;2024-03-23T04:10:22;7.83;;;2.13;;
5085;SDS011;4715;51.660;7.082;2024-03-23T04:12:48;7.10;;;2.57;;
5085;SDS011;4715;51.660;7.082;2024-03-23T04:15:09;7.67;;;2.17;;
5085;SDS011;4715;51.660;7.082;2024-03-23T04:17:31;7.47;;;2.17;;
5085;SDS011;4715;51.660;7.082;2024-03-23T04:19:54;7.50;;;2.13;;
5085;SDS011;4715;51.660;7.082;2024-03-23T04:22:17;7.20;;;2.27;;
5085;SDS011;4715;51.660;7.082;2024-03-23T04:24:38;8.40;;;2.43;;
5085;SDS011;4715;51.660;7.082;2024-03-23T04:27:03;9.63;;;2.73;;
5085;SDS011;4715;51.660;7.082;2024-03-23T04:29:24;10.67;;;2.70;;
5085;SDS011;4715;51.660;7.082;2024-03-23T04:31:47;4.00;;;2.07;;
5085;SDS011;4715;51.660;7.082;2024-03-23T04:34:08;12.03;;;2.60;;
5085;SDS011;4715;51.660;7.082;2024-03-23T04:36:31;2.43;;;2.20;;
5085;SDS011;4715;51.660;7.082;2024-03-23T04:38:53;5.83;;;2.27;;
5085;SDS011;4715;51.660;7.082;2024-03-23T04:41:15;7.93;;;2.57;;
5085;SDS011;4715;51.660;7.082;2024-03-23T04:43:37;4.20;;;2.50;;
5085;SDS011;4715;51.660;7.082;2024-03-23T04:45:59;6.67;;;2.57;;
5085;SDS011;4715;51.660;7.082;2024-03-23T04:48:21;4.63;;;2.43;;
5085;SDS011;4715;51.660;7.082;2024-03-23T04:50:43;6.10;;;2.73;;
5085;SDS011;4715;51.660;7.082;2024-03-23T04:53:07;9.20;;;2.20;;
5085;SDS011;4715;51.660;7.082;2024-03-23T04:55:29;7.07;;;2.57;;
5085;SDS011;4715;51.660;7.082;2024-03-23T04:57:53;3.93;;;2.47;;
5085;SDS011;4715;51.660;7.082;2024-03-23T05:00:14;8.40;;;3.10;;
5085;SDS011;4715;51.660;7.082;2024-03-23T05:02:41;12.50;;;3.03;;
5085;SDS011;4715;51.660;7.082;2024-03-23T05:05:04;6.70;;;2.83;;
5085;SDS011;4715;51.660;7.082;2024-03-23T05:07:28;5.00;;;2.33;;
5085;SDS011;4715;51.660;7.082;2024-03-23T05:09:51;6.70;;;2.73;;
5085;SDS011;4715;51.660;7.082;2024-03-23T05:12:12;9.63;;;2.97;;
5085;SDS011;4715;51.660;7.082;2024-03-23T05:14:37;4.37;;;3.37;;
5085;SDS011;4715;51.660;7.082;2024-03-23T05:16:57;4.17;;;3.10;;
5085;SDS011;4715;51.660;7.082;2024-03-23T05:19:20;13.77;;;3.47;;
5085;SDS011;4715;51.660;7.082;2024-03-23T05:21:41;8.50;;;3.73;;
5085;SDS011;4715;51.660;7.082;2024-03-23T05:24:02;7.20;;;4.40;;
5085;SDS011;4715;51.660;7.082;2024-03-23T05:26:26;4.97;;;2.50;;
5085;SDS011;4715;51.660;7.082;2024-03-23T05:28:49;8.17;;;3.40;;
5085;SDS011;4715;51.660;7.082;2024-03-23T05:31:10;7.37;;;3.87;;
5085;SDS011;4715;51.660;7.082;2024-03-23T05:33:32;7.73;;;4.20;;
5085;SDS011;4715;51.660;7.082;2024-03-23T05:35:56;8.70;;;3.90;;
5085;SDS011;4715;51.660;7.082;2024-03-23T05:38:18;9.60;;;4.57;;
5085;SDS011;4715;51.660;7.082;2024-03-23T05:40:40;7.63;;;4.03;;
5085;SDS011;4715;51.660;7.082;2024-03-23T05:43:03;5.33;;;4.10;;
5085;SDS011;4715;51.660;7.082;2024-03-23T05:45:25;10.03;;;4.57;;
5085;SDS011;4715;51.660;7.082;2024-03-23T05:47:47;9.57;;;5.10;;
5085;SDS011;4715;51.660;7.082;2024-03-23T05:50:09;12.53;;;4.37;;
5085;SDS011;4715;51.660;7.082;2024-03-23T05:52:32;11.70;;;4.97;;
5085;SDS011;4715;51.660;7.082;2024-03-23T05:54:53;12.00;;;4.70;;
5085;SDS011;4715;51.660;7.082;2024-03-23T05:57:16;5.50;;;4.27;;
5085;SDS011;4715;51.660;7.082;2024-03-23T05:59:40;11.37;;;4.80;;
5085;SDS011;4715;51.660;7.082;2024-03-23T06:02:01;10.17;;;5.40;;
5085;SDS011;4715;51.660;7.082;2024-03-23T06:04:23;7.00;;;4.63;;
5085;SDS011;4715;51.660;7.082;2024-03-23T06:06:45;14.50;;;5.60;;
5085;SDS011;4715;51.660;7.082;2024-03-23T06:09:09;13.40;;;5.00;;
5085;SDS011;4715;51.660;7.082;2024-03-23T06:11:31;7.77;;;4.90;;
5085;SDS011;4715;51.660;7.082;2024-03-23T06:13:52;6.60;;;4.73;;
5085;SDS011;4715;51.660;7.082;2024-03-23T06:16:15;8.70;;;5.60;;
5085;SDS011;4715;51.660;7.082;2024-03-23T06:18:36;14.90;;;6.43;;
5085;SDS011;4715;51.660;7.082;2024-03-23T06:20:58;21.20;;;6.60;;
5085;SDS011;4715;51.660;7.082;2024-03-23T06:23:19;15.17;;;6.17;;
5085;SDS011;4715;51.660;7.082;2024-03-23T06:25:41;15.53;;;6.20;;
5085;SDS011;4715;51.660;7.082;2024-03-23T06:28:02;9.43;;;6.60;;
5085;SDS011;4715;51.660;7.082;2024-03-23T06:30:24;15.70;;;8.00;;
5085;SDS011;4715;51.660;7.082;2024-03-23T06:32:50;16.53;;;6.57;;
5085;SDS011;4715;51.660;7.082;2024-03-23T06:35:13;11.77;;;6.80;;
5085;SDS011;4715;51.660;7.082;2024-03-23T06:37:34;14.07;;;5.97;;
5085;SDS011;4715;51.660;7.082;2024-03-23T06:39:56;15.33;;;7.93;;
5085;SDS011;4715;51.660;7.082;2024-03-23T06:42:18;13.30;;;8.13;;
5085;SDS011;4715;51.660;7.082;2024-03-23T06:44:40;17.50;;;7.80;;
5085;SDS011;4715;51.660;7.082;2024-03-23T06:47:01;17.00;;;7.60;;
5085;SDS011;4715;51.660;7.082;2024-03-23T06:49:28;10.93;;;7.23;;
5085;SDS011;4715;51.660;7.082;2024-03-23T06:51:51;28.47;;;9.10;;
5085;SDS011;4715;51.660;7.082;2024-03-23T06:54:13;8.80;;;6.23;;
5085;SDS011;4715;51.660;7.082;2024-03-23T06:56:34;11.53;;;6.47;;
5085;SDS011;4715;51.660;7.082;2024-03-23T06:58:56;14.00;;;7.07;;
5085;SDS011;4715;51.660;7.082;2024-03-23T07:01:17;10.10;;;7.80;;
5085;SDS011;4715;51.660;7.082;2024-03-23T07:03:40;14.50;;;7.17;;
5085;SDS011;4715;51.660;7.082;2024-03-23T07:06:03;13.80;;;6.43;;
5085;SDS011;4715;51.660;7.082;2024-03-23T07:08:25;10.93;;;5.93;;
5085;SDS011;4715;51.660;7.082;2024-03-23T07:10:46;39.87;;;8.60;;
5085;SDS011;4715;51.660;7.082;2024-03-23T07:13:08;9.77;;;6.17;;
5085;SDS011;4715;51.660;7.082;2024-03-23T07:15:29;12.80;;;5.70;;
5085;SDS011;4715;51.660;7.082;2024-03-23T07:17:51;14.13;;;6.27;;
5085;SDS011;4715;51.660;7.082;2024-03-23T07:20:14;8.40;;;4.60;;
5085;SDS011;4715;51.660;7.082;2024-03-23T07:22:39;9.77;;;5.33;;
5085;SDS011;4715;51.660;7.082;2024-03-23T07:25:02;10.10;;;5.17;;
5085;SDS011;4715;51.660;7.082;2024-03-23T07:27:26;10.00;;;4.83;;
5085;SDS011;4715;51.660;7.082;2024-03-23T07:29:50;13.83;;;5.40;;
5085;SDS011;4715;51.660;7.082;2024-03-23T07:32:12;7.27;;;4.73;;
5085;SDS011;4715;51.660;7.082;2024-03-23T07:34:33;15.37;;;4.60;;
5085;SDS011;4715;51.660;7.082;2024-03-23T07:36:55;15.53;;;5.23;;
5085;SDS011;4715;51.660;7.082;2024-03-23T07:39:17;12.40;;;4.13;;
5085;SDS011;4715;51.660;7.082;2024-03-23T07:41:39;9.83;;;4.50;;
5085;SDS011;4715;51.660;7.082;2024-03-23T07:44:00;10.20;;;4.30;;
5085;SDS011;4715;51.660;7.082;2024-03-23T07:46:22;15.43;;;4.20;;
5085;SDS011;4715;51.660;7.082;2024-03-23T07:48:45;8.97;;;4.20;;
5085;SDS011;4715;51.660;7.082;2024-03-23T07:51:07;5.30;;;3.30;;
5085;SDS011;4715;51.660;7.082;2024-03-23T07:53:30;10.00;;;4.80;;
5085;SDS011;4715;51.660;7.082;2024-03-23T07:55:55;18.07;;;4.30;;
5085;SDS011;4715;51.660;7.082;2024-03-23T07:58:17;7.07;;;3.20;;
5085;SDS011;4715;51.660;7.082;2024-03-23T08:00:39;9.07;;;3.47;;
5085;SDS011;4715;51.660;7.082;2024-03-23T08:02:59;6.70;;;4.00;;
5085;SDS011;4715;51.660;7.082;2024-03-23T08:05:25;6.00;;;3.23;;
5085;SDS011;4715;51.660;7.082;2024-03-23T08:07:48;10.87;;;3.93;;
5085;SDS011;4715;51.660;7.082;2024-03-23T08:10:14;12.47;;;4.17;;
5085;SDS011;4715;51.660;7.082;2024-03-23T08:12:40;8.67;;;3.97;;
5085;SDS011;4715;51.660;7.082;2024-03-23T08:15:08;9.80;;;4.30;;
5085;SDS011;4715;51.660;7.082;2024-03-23T08:17:33;12.20;;;4.40;;
5085;SDS011;4715;51.660;7.082;2024-03-23T08:20:07;12.93;;;4.50;;
5085;SDS011;4715;51.660;7.082;2024-03-23T08:22:30;15.67;;;4.43;;
5085;SDS011;4715;51.660;7.082;2024-03-23T08:24:53;12.10;;;3.97;;
5085;SDS011;4715;51.660;7.082;2024-03-23T08:27:19;13.40;;;4.97;;
5085;SDS011;4715;51.660;7.082;2024-03-23T08:32:24;6.83;;;4.70;;
5085;SDS011;4715;51.660;7.082;2024-03-23T08:34:56;9.87;;;4.13;;
5085;SDS011;4715;51.660;7.082;2024-03-23T08:37:21;8.47;;;4.67;;
5085;SDS011;4715;51.660;7.082;2024-03-23T08:39:48;7.43;;;4.43;;
5085;SDS011;4715;51.660;7.082;2024-03-23T08:42:12;10.37;;;5.60;;
5085;SDS011;4715;51.660;7.082;2024-03-23T08:44:34;10.07;;;5.43;;
5085;SDS011;4715;51.660;7.082;2024-03-23T08:46:57;14.33;;;4.87;;
5085;SDS011;4715;51.660;7.082;2024-03-23T08:49:21;14.13;;;4.80;;
5085;SDS011;4715;51.660;7.082;2024-03-23T08:51:42;10.53;;;4.97;;
5085;SDS011;4715;51.660;7.082;2024-03-23T08:54:04;12.53;;;4.90;;
5085;SDS011;4715;51.660;7.082;2024-03-23T08:56:25;13.15;;;5.60;;
5085;SDS011;4715;51.660;7.082;2024-03-23T08:58:47;6.73;;;5.03;;
5085;SDS011;4715;51.660;7.082;2024-03-23T09:01:13;6.47;;;4.53;;
5085;SDS011;4715;51.660;7.082;2024-03-23T09:03:37;13.67;;;6.50;;
5085;SDS011;4715;51.660;7.082;2024-03-23T09:05:58;8.60;;;4.80;;
5085;SDS011;4715;51.660;7.082;2024-03-23T09:08:21;13.40;;;4.23;;
5085;SDS011;4715;51.660;7.082;2024-03-23T09:10:42;12.20;;;5.07;;
5085;SDS011;4715;51.660;7.082;2024-03-23T09:13:04;3.83;;;3.47;;
5085;SDS011;4715;51.660;7.082;2024-03-23T09:15:26;6.57;;;3.30;;
5085;SDS011;4715;51.660;7.082;2024-03-23T09:17:51;11.50;;;3.83;;
5085;SDS011;4715;51.660;7.082;2024-03-23T09:20:13;9.33;;;4.37;;
5085;SDS011;4715;51.660;7.082;2024-03-23T09:22:35;6.43;;;4.30;;
5085;SDS011;4715;51.660;7.082;2024-03-23T09:24:56;7.00;;;4.17;;
5085;SDS011;4715;51.660;7.082;2024-03-23T09:27:18;7.60;;;4.20;;
5085;SDS011;4715;51.660;7.082;2024-03-23T09:29:39;8.83;;;3.77;;
5085;SDS011;4715;51.660;7.082;2024-03-23T09:32:01;4.83;;;3.03;;
5085;SDS011;4715;51.660;7.082;2024-03-23T09:34:25;8.90;;;3.33;;
5085;SDS011;4715;51.660;7.082;2024-03-23T09:36:50;7.00;;;3.50;;
5085;SDS011;4715;51.660;7.082;2024-03-23T09:39:13;4.20;;;2.90;;
5085;SDS011;4715;51.660;7.082;2024-03-23T09:41:35;9.93;;;3.10;;
5085;SDS011;4715;51.660;7.082;2024-03-23T09:43:59;5.23;;;3.10;;
5085;SDS011;4715;51.660;7.082;2024-03-23T09:46:22;5.80;;;2.93;;
5085;SDS011;4715;51.660;7.082;2024-03-23T09:48:43;7.00;;;5.30;;
5085;SDS011;4715;51.660;7.082;2024-03-23T09:51:07;6.10;;;2.40;;
5085;SDS011;4715;51.660;7.082;2024-03-23T09:53:30;6.20;;;2.77;;
5085;SDS011;4715;51.660;7.082;2024-03-23T09:55:53;5.97;;;2.80;;
5085;SDS011;4715;51.660;7.082;2024-03-23T09:58:15;6.20;;;3.30;;
5085;SDS011;4715;51.660;7.082;2024-03-23T10:00:39;5.20;;;2.93;;
5085;SDS011;4715;51.660;7.082;2024-03-23T10:03:01;6.63;;;2.43;;
5085;SDS011;4715;51.660;7.082;2024-03-23T10:05:27;2.57;;;2.37;;
5085;SDS011;4715;51.660;7.082;2024-03-23T10:07:50;4.73;;;2.30;;
5085;SDS011;4715;51.660;7.082;2024-03-23T10:10:17;9.77;;;3.00;;
5085;SDS011;4715;51.660;7.082;2024-03-23T10:12:43;4.67;;;2.90;;
5085;SDS011;4715;51.660;7.082;2024-03-23T10:15:09;4.50;;;2.97;;
5085;SDS011;4715;51.660;7.082;2024-03-23T10:17:39;10.30;;;4.93;;
5085;SDS011;4715;51.660;7.082;2024-03-23T10:20:02;4.47;;;2.80;;
5085;SDS011;4715;51.660;7.082;2024-03-23T10:22:26;4.53;;;2.77;;
5085;SDS011;4715;51.660;7.082;2024-03-23T10:24:48;7.43;;;2.70;;
5085;SDS011;4715;51.660;7.082;2024-03-23T10:27:10;8.90;;;2.30;;
5085;SDS011;4715;51.660;7.082;2024-03-23T10:29:40;7.70;;;2.47;;
5085;SDS011;4715;51.660;7.082;2024-03-23T10:32:07;3.53;;;2.47;;
5085;SDS011;4715;51.660;7.082;2024-03-23T10:34:30;3.63;;;1.93;;
5085;SDS011;4715;51.660;7.082;2024-03-23T10:36:52;9.50;;;2.10;;
5085;SDS011;4715;51.660;7.082;2024-03-23T10:39:19;2.43;;;1.83;;
5085;SDS011;4715;51.660;7.082;2024-03-23T10:41:41;5.90;;;2.13;;
5085;SDS011;4715;51.660;7.082;2024-03-23T10:44:05;3.47;;;1.87;;
5085;SDS011;4715;51.660;7.082;2024-03-23T10:46:27;3.97;;;1.67;;
5085;SDS011;4715;51.660;7.082;2024-03-23T10:48:49;4.23;;;1.57;;
5085;SDS011;4715;51.660;7.082;2024-03-23T10:51:10;4.13;;;1.77;;
5085;SDS011;4715;51.660;7.082;2024-03-23T10:53:35;3.50;;;2.30;;
5085;SDS011;4715;51.660;7.082;2024-03-23T10:55:57;2.83;;;1.43;;
5085;SDS011;4715;51.660;7.082;2024-03-23T10:58:21;4.17;;;2.23;;
5085;SDS011;4715;51.660;7.082;2024-03-23T11:00:52;5.70;;;1.60;;
5085;SDS011;4715;51.660;7.082;2024-03-23T11:03:30;12.47;;;2.03;;
5085;SDS011;4715;51.660;7.082;2024-03-23T11:05:52;5.07;;;1.80;;
5085;SDS011;4715;51.660;7.082;2024-03-23T11:08:25;7.70;;;2.90;;
5085;SDS011;4715;51.660;7.082;2024-03-23T11:10:50;3.70;;;2.10;;
5085;SDS011;4715;51.660;7.082;2024-03-23T11:13:21;3.17;;;2.03;;
5085;SDS011;4715;51.660;7.082;2024-03-23T11:15:42;1.20;;;1.10;;
5085;SDS011;4715;51.660;7.082;2024-03-23T11:18:06;6.40;;;1.40;;
5085;SDS011;4715;51.660;7.082;2024-03-23T11:20:31;1.10;;;0.93;;
5085;SDS011;4715;51.660;7.082;2024-03-23T11:22:53;1.77;;;1.20;;
5085;SDS011;4715;51.660;7.082;2024-03-23T11:25:16;0.93;;;0.83;;
5085;SDS011;4715;51.660;7.082;2024-03-23T11:27:41;0.80;;;0.80;;
5085;SDS011;4715;51.660;7.082;2024-03-23T11:30:09;2.20;;;1.00;;
5085;SDS011;4715;51.660;7.082;2024-03-23T11:32:33;2.83;;;1.20;;
5085;SDS011;4715;51.660;7.082;2024-03-23T11:34:59;2.60;;;1.37;;
5085;SDS011;4715;51.660;7.082;2024-03-23T11:37:21;2.70;;;1.07;;
5085;SDS011;4715;51.660;7.082;2024-03-23T11:39:41;2.33;;;1.20;;
5085;SDS011;4715;51.660;7.082;2024-03-23T11:42:06;3.23;;;1.10;;
5085;SDS011;4715;51.660;7.082;2024-03-23T11:44:26;4.50;;;1.87;;
5085;SDS011;4715;51.660;7.082;2024-03-23T11:46:48;3.23;;;1.60;;
5085;SDS011;4715;51.660;7.082;2024-03-23T11:51:56;3.50;;;1.53;;
5085;SDS011;4715;51.660;7.082;2024-03-23T11:54:20;3.80;;;1.60;;
5085;SDS011;4715;51.660;7.082;2024-03-23T11:56:53;3.70;;;1.70;;
5085;SDS011;4715;51.660;7.082;2024-03-23T11:59:29;7.57;;;1.80;;
5085;SDS011;4715;51.660;7.082;2024-03-23T12:01:57;4.47;;;1.50;;
5085;SDS011;4715;51.660;7.082;2024-03-23T12:04:28;7.27;;;1.40;;
5085;SDS011;4715;51.660;7.082;2024-03-23T12:07:18;2.37;;;1.60;;
5085;SDS011;4715;51.660;7.082;2024-03-23T12:09:40;2.13;;;1.67;;
5085;SDS011;4715;51.660;7.082;2024-03-23T12:12:07;4.40;;;1.60;;
5085;SDS011;4715;51.660;7.082;2024-03-23T12:14:29;2.40;;;1.73;;
5085;SDS011;4715;51.660;7.082;2024-03-23T12:16:51;5.83;;;1.90;;
5085;SDS011;4715;51.660;7.082;2024-03-23T12:19:13;2.10;;;1.70;;
5085;SDS011;4715;51.660;7.082;2024-03-23T12:21:38;8.03;;;2.40;;
5085;SDS011;4715;51.660;7.082;2024-03-23T12:24:02;7.93;;;2.00;;
5085;SDS011;4715;51.660;7.082;2024-03-23T12:26:25;3.53;;;1.93;;
5085;SDS011;4715;51.660;7.082;2024-03-23T12:28:46;4.40;;;2.67;;
5085;SDS011;4715;51.660;7.082;2024-03-23T12:31:10;2.67;;;1.60;;
5085;SDS011;4715;51.660;7.082;2024-03-23T12:33:31;3.07;;;2.17;;
5085;SDS011;4715;51.660;7.082;2024-03-23T12:35:53;4.77;;;2.03;;
5085;SDS011;4715;51.660;7.082;2024-03-23T12:38:19;4.93;;;2.10;;
5085;SDS011;4715;51.660;7.082;2024-03-23T12:40:43;3.53;;;1.93;;
5085;SDS011;4715;51.660;7.082;2024-03-23T12:43:07;5.90;;;2.60;;
5085;SDS011;4715;51.660;7.082;2024-03-23T12:45:29;2.37;;;1.87;;
5085;SDS011;4715;51.660;7.082;2024-03-23T12:47:50;5.90;;;2.17;;
5085;SDS011;4715;51.660;7.082;2024-03-23T12:50:14;9.73;;;2.43;;
5085;SDS011;4715;51.660;7.082;2024-03-23T12:52:45;2.40;;;2.20;;
5085;SDS011;4715;51.660;7.082;2024-03-23T12:55:07;1.80;;;1.47;;
5085;SDS011;4715;51.660;7.082;2024-03-23T12:57:30;3.93;;;3.13;;
5085;SDS011;4715;51.660;7.082;2024-03-23T12:59:52;3.97;;;1.40;;
5085;SDS011;4715;51.660;7.082;2024-03-23T13:02:17;5.77;;;1.87;;
5085;SDS011;4715;51.660;7.082;2024-03-23T13:04:42;8.83;;;2.17;;
5085;SDS011;4715;51.660;7.082;2024-03-23T13:07:13;3.90;;;1.40;;
5085;SDS011;4715;51.660;7.082;2024-03-23T13:09:35;6.80;;;1.80;;
5085;SDS011;4715;51.660;7.082;2024-03-23T13:11:56;4.00;;;1.50;;
5085;SDS011;4715;51.660;7.082;2024-03-23T13:14:21;3.03;;;2.10;;
5085;SDS011;4715;51.660;7.082;2024-03-23T13:16:43;2.40;;;1.70;;
5085;SDS011;4715;51.660;7.082;2024-03-23T13:19:05;4.20;;;1.50;;
5085;SDS011;4715;51.660;7.082;2024-03-23T13:21:27;1.30;;;1.10;;
5085;SDS011;4715;51.660;7.082;2024-03-23T13:23:49;3.50;;;1.30;;
5085;SDS011;4715;51.660;7.082;2024-03-23T13:26:11;1.20;;;0.93;;
5085;SDS011;4715;51.660;7.082;2024-03-23T13:28:33;4.37;;;1.37;;
5085;SDS011;4715;51.660;7.082;2024-03-23T13:30:57;5.77;;;1.40;;
5085;SDS011;4715;51.660;7.082;2024-03-23T13:33:23;1.43;;;1.20;;
5085;SDS011;4715;51.660;7.082;2024-03-23T13:35:50;1.80;;;1.43;;
5085;SDS011;4715;51.660;7.082;2024-03-23T13:38:12;3.27;;;1.67;;
5085;SDS011;4715;51.660;7.082;2024-03-23T13:40:33;2.50;;;1.73;;
5085;SDS011;4715;51.660;7.082;2024-03-23T13:42:57;4.40;;;2.13;;
5085;SDS011;4715;51.660;7.082;2024-03-23T13:45:18;3.30;;;1.80;;
5085;SDS011;4715;51.660;7.082;2024-03-23T13:47:46;3.93;;;1.87;;
5085;SDS011;4715;51.660;7.082;2024-03-23T13:50:08;4.67;;;3.37;;
5085;SDS011;4715;51.660;7.082;2024-03-23T13:52:30;2.83;;;2.00;;
5085;SDS011;4715;51.660;7.082;2024-03-23T13:54:53;4.73;;;1.83;;
5085;SDS011;4715;51.660;7.082;2024-03-23T13:57:16;4.87;;;1.97;;
5085;SDS011;4715;51.660;7.082;2024-03-23T13:59:40;2.57;;;2.00;;
5085;SDS011;4715;51.660;7.082;2024-03-23T14:02:02;5.37;;;2.23;;
5085;SDS011;4715;51.660;7.082;2024-03-23T14:04:25;6.17;;;2.43;;
5085;SDS011;4715;51.660;7.082;2024-03-23T14:06:47;3.80;;;1.83;;
5085;SDS011;4715;51.660;7.082;2024-03-23T14:09:08;5.97;;;2.47;;
5085;SDS011;4715;51.660;7.082;2024-03-23T14:11:30;2.43;;;1.50;;
5085;SDS011;4715;51.660;7.082;2024-03-23T14:13:54;4.67;;;1.60;;
5085;SDS011;4715;51.660;7.082;2024-03-23T14:16:19;1.60;;;1.50;;
5085;SDS011;4715;51.660;7.082;2024-03-23T14:18:41;4.40;;;1.63;;
5085;SDS011;4715;51.660;7.082;2024-03-23T14:21:04;2.13;;;1.53;;
5085;SDS011;4715;51.660;7.082;2024-03-23T14:23:27;6.10;;;1.60;;
5085;SDS011;4715;51.660;7.082;2024-03-23T14:25:53;1.23;;;1.13;;
5085;SDS011;4715;51.660;7.082;2024-03-23T14:28:17;5.17;;;1.80;;
5085;SDS011;4715;51.660;7.082;2024-03-23T14:30:39;3.17;;;1.60;;
5085;SDS011;4715;51.660;7.082;2024-03-23T14:33:01;6.80;;;1.80;;
5085;SDS011;4715;51.660;7.082;2024-03-23T14:35:23;4.00;;;2.10;;
5085;SDS011;4715;51.660;7.082;2024-03-23T14:37:48;2.53;;;1.60;;
5085;SDS011;4715;51.660;7.082;2024-03-23T14:40:10;2.70;;;1.77;;
5085;SDS011;4715;51.660;7.082;2024-03-23T14:42:32;7.57;;;1.40;;
5085;SDS011;4715;51.660;7.082;2024-03-23T14:44:54;2.10;;;1.57;;
5085;SDS011;4715;51.660;7.082;2024-03-23T14:47:15;1.70;;;1.53;;
5085;SDS011;4715;51.660;7.082;2024-03-23T14:49:38;3.80;;;1.57;;
5085;SDS011;4715;51.660;7.082;2024-03-23T14:51:59;2.40;;;1.47;;
5085;SDS011;4715;51.660;7.082;2024-03-23T14:54:30;5.10;;;1.97;;
5085;SDS011;4715;51.660;7.082;2024-03-23T14:56:55;2.23;;;1.00;;
5085;SDS011;4715;51.660;7.082;2024-03-23T14:59:17;3.70;;;1.57;;
5085;SDS011;4715;51.660;7.082;2024-03-23T15:01:39;3.23;;;1.77;;
5085;SDS011;4715;51.660;7.082;2024-03-23T15:04:02;3.00;;;1.70;;
5085;SDS011;4715;51.660;7.082;2024-03-23T15:06:24;2.80;;;1.30;;
5085;SDS011;4715;51.660;7.082;2024-03-23T15:08:49;4.37;;;1.27;;
5085;SDS011;4715;51.660;7.082;2024-03-23T15:11:16;3.77;;;1.63;;
5085;SDS011;4715;51.660;7.082;2024-03-23T15:13:49;1.33;;;1.23;;
5085;SDS011;4715;51.660;7.082;2024-03-23T15:16:10;1.30;;;1.20;;
5085;SDS011;4715;51.660;7.082;2024-03-23T15:18:32;2.50;;;1.40;;
5085;SDS011;4715;51.660;7.082;2024-03-23T15:20:58;3.30;;;1.70;;
5085;SDS011;4715;51.660;7.082;2024-03-23T15:23:22;3.00;;;1.90;;
5085;SDS011;4715;51.660;7.082;2024-03-23T15:25:46;4.90;;;2.17;;
5085;SDS011;4715;51.660;7.082;2024-03-23T15:31:24;7.47;;;2.80;;
5085;SDS011;4715;51.660;7.082;2024-03-23T15:33:46;4.63;;;2.07;;
5085;SDS011;4715;51.660;7.082;2024-03-23T15:36:07;2.30;;;2.00;;
5085;SDS011;4715;51.660;7.082;2024-03-23T15:38:31;1.97;;;1.47;;
5085;SDS011;4715;51.660;7.082;2024-03-23T15:40:52;3.07;;;1.73;;
5085;SDS011;4715;51.660;7.082;2024-03-23T15:43:14;5.53;;;1.37;;
5085;SDS011;4715;51.660;7.082;2024-03-23T15:45:36;5.73;;;1.43;;
5085;SDS011;4715;51.660;7.082;2024-03-23T15:47:58;1.30;;;1.20;;